createdAt,value
2019-05-22T00:02:22.118Z,93.70
2019-05-22T00:05:11.035Z,93.60
2019-05-22T00:07:41.928Z,93.70
2019-05-22T00:10:12.279Z,93.90
2019-05-22T00:12:49.423Z,94.00
2019-05-22T00:15:18.880Z,94.00
2019-05-22T00:17:49.269Z,94.10
2019-05-22T00:20:20.083Z,94.20
2019-05-22T00:22:51.086Z,94.20
2019-05-22T00:25:24.149Z,94.00
2019-05-22T00:27:55.875Z,94.00
2019-05-22T00:30:29.024Z,94.10
2019-05-22T00:33:00.204Z,94.20
2019-05-22T00:35:29.243Z,94.30
2019-05-22T00:37:57.832Z,94.10
2019-05-22T00:40:29.494Z,93.90
2019-05-22T00:43:04.330Z,93.80
2019-05-22T00:45:31.380Z,93.90
2019-05-22T00:48:00.478Z,93.90
2019-05-22T00:50:33.417Z,94.00
2019-05-22T00:53:22.294Z,93.90
2019-05-22T00:55:52.805Z,94.00
2019-05-22T00:58:26.868Z,94.00
2019-05-22T01:01:01.246Z,94.10
2019-05-22T01:03:31.045Z,94.10
2019-05-22T01:06:01.580Z,94.10
2019-05-22T01:08:31.177Z,94.20
2019-05-22T01:11:01.031Z,94.20
2019-05-22T01:13:30.984Z,94.00
2019-05-22T01:16:01.471Z,94.10
2019-05-22T01:18:30.135Z,94.20
2019-05-22T01:21:00.896Z,94.30
2019-05-22T01:23:31.010Z,94.30
2019-05-22T01:26:01.289Z,94.10
2019-05-22T01:28:32.116Z,94.10
2019-05-22T01:31:02.721Z,94.10
2019-05-22T01:33:33.044Z,94.00
2019-05-22T01:36:03.203Z,93.90
2019-05-22T01:38:33.565Z,93.80
2019-05-22T01:41:18.522Z,94.20
2019-05-22T01:43:49.700Z,94.00
2019-05-22T01:46:21.246Z,94.00
2019-05-22T01:48:53.808Z,94.00
2019-05-22T01:51:23.787Z,94.10
2019-05-22T01:53:54.035Z,94.10
2019-05-22T01:56:24.898Z,94.10
2019-05-22T01:58:54.895Z,94.40
2019-05-22T02:01:25.479Z,93.70
2019-05-22T02:03:56.346Z,93.70
2019-05-22T02:06:26.767Z,93.80
2019-05-22T02:09:05.784Z,93.70
2019-05-22T02:11:35.794Z,93.80
2019-05-22T02:14:11.959Z,93.90
2019-05-22T02:16:55.960Z,93.80
2019-05-22T02:19:16.568Z,93.50
2019-05-22T02:21:45.958Z,93.30
2019-05-22T02:24:15.900Z,93.30
2019-05-22T02:26:45.608Z,93.00
2019-05-22T02:29:16.810Z,92.90
2019-05-22T02:31:47.091Z,92.90
2019-05-22T02:34:16.965Z,92.80
2019-05-22T02:36:47.174Z,93.30
2019-05-22T02:39:31.117Z,93.10
2019-05-22T02:42:03.337Z,92.90
2019-05-22T02:44:32.519Z,92.70
2019-05-22T02:47:18.034Z,92.80
2019-05-22T02:49:32.697Z,92.90
2019-05-22T02:52:03.781Z,93.00
2019-05-22T02:54:33.515Z,92.80
2019-05-22T02:57:03.696Z,92.30
2019-05-22T02:59:32.394Z,92.30
2019-05-22T03:02:03.876Z,92.50
2019-05-22T03:05:01.772Z,92.80
2019-05-22T03:07:31.598Z,92.60
2019-05-22T03:10:02.323Z,92.50
2019-05-22T03:12:33.280Z,92.40
2019-05-22T03:15:02.602Z,92.60
2019-05-22T03:17:32.064Z,92.50
2019-05-22T03:20:04.782Z,92.40
2019-05-22T03:22:43.932Z,92.30
2019-05-22T03:25:14.213Z,92.40
2019-05-22T03:27:46.825Z,92.20
2019-05-22T03:30:27.262Z,92.20
2019-05-22T03:32:57.024Z,92.10
2019-05-22T03:35:28.069Z,91.80
2019-05-22T03:37:59.151Z,91.70
2019-05-22T03:40:29.918Z,91.90
2019-05-22T03:43:02.176Z,91.90
2019-05-22T03:45:32.968Z,91.80
2019-05-22T03:48:04.983Z,91.50
2019-05-22T03:50:33.589Z,91.60
2019-05-22T03:53:10.751Z,91.80
2019-05-22T03:55:39.637Z,91.80
2019-05-22T03:58:08.965Z,92.10
2019-05-22T04:00:43.178Z,92.00
2019-05-22T04:03:09.954Z,92.00
2019-05-22T04:05:38.804Z,91.60
2019-05-22T04:08:10.231Z,91.30
2019-05-22T04:10:56.951Z,91.50
2019-05-22T04:13:25.906Z,91.80
2019-05-22T04:15:55.220Z,91.90
2019-05-22T04:18:26.096Z,91.80
2019-05-22T04:20:56.915Z,91.50
2019-05-22T04:23:25.611Z,91.60
2019-05-22T04:25:55.086Z,91.90
2019-05-22T04:28:24.165Z,91.80
2019-05-22T04:30:53.011Z,91.60
2019-05-22T04:33:21.644Z,91.30
2019-05-22T04:35:51.478Z,91.20
2019-05-22T04:38:21.979Z,91.30
2019-05-22T04:40:53.247Z,91.00
2019-05-22T04:43:24.128Z,91.00
2019-05-22T04:45:57.000Z,91.40
2019-05-22T04:48:27.121Z,91.50
2019-05-22T04:50:58.305Z,90.90
2019-05-22T04:53:29.180Z,90.90
2019-05-22T04:55:58.083Z,90.70
2019-05-22T04:58:28.817Z,90.30
2019-05-22T05:00:57.658Z,90.30
2019-05-22T05:03:27.032Z,90.40
2019-05-22T05:05:57.500Z,90.50
2019-05-22T05:08:26.407Z,90.40
2019-05-22T05:10:55.939Z,90.20
2019-05-22T05:13:26.427Z,90.10
2019-05-22T05:15:55.707Z,90.10
2019-05-22T05:18:24.836Z,90.10
2019-05-22T05:20:53.850Z,90.40
2019-05-22T05:23:23.007Z,90.50
2019-05-22T05:25:51.952Z,89.30
2019-05-22T05:28:21.769Z,89.30
2019-05-22T05:30:50.623Z,89.20
2019-05-22T05:33:19.662Z,88.00
2019-05-22T05:35:49.868Z,87.50
2019-05-22T05:38:20.716Z,87.80
2019-05-22T05:40:49.942Z,87.20
2019-05-22T05:43:37.945Z,88.00
2019-05-22T05:46:06.656Z,86.50
2019-05-22T05:48:35.875Z,85.70
2019-05-22T05:51:08.368Z,85.90
2019-05-22T05:54:02.677Z,86.50
2019-05-22T05:56:33.810Z,87.20
2019-05-22T05:59:04.430Z,86.10
2019-05-22T06:01:35.466Z,86.10
2019-05-22T06:04:04.931Z,85.50
2019-05-22T06:06:38.243Z,85.20
2019-05-22T06:09:10.861Z,85.80
2019-05-22T06:11:52.332Z,84.70
2019-05-22T06:14:25.268Z,84.20
2019-05-22T06:17:07.405Z,83.90
2019-05-22T06:19:45.284Z,84.10
2019-05-22T06:22:17.329Z,83.70
2019-05-22T06:24:52.178Z,84.60
2019-05-22T06:27:25.537Z,84.00
2019-05-22T06:30:03.915Z,82.90
2019-05-22T06:32:53.981Z,81.90
2019-05-22T06:35:23.014Z,82.00
2019-05-22T06:38:03.710Z,81.90
2019-05-22T06:40:32.910Z,82.00
2019-05-22T06:43:23.835Z,82.90
2019-05-22T06:45:54.261Z,81.30
2019-05-22T06:48:23.139Z,81.00
2019-05-22T06:50:52.210Z,81.00
2019-05-22T06:53:21.155Z,81.10
2019-05-22T06:55:50.507Z,81.20
2019-05-22T06:58:19.697Z,80.80
2019-05-22T07:00:48.680Z,81.10
2019-05-22T07:03:17.802Z,81.00
2019-05-22T07:05:47.697Z,80.10
2019-05-22T07:08:16.955Z,79.70
2019-05-22T07:10:45.603Z,80.50
2019-05-22T07:13:14.951Z,79.70
2019-05-22T07:15:44.246Z,79.30
2019-05-22T07:18:15.271Z,78.30
2019-05-22T07:20:44.730Z,78.10
2019-05-22T07:23:15.263Z,78.10
2019-05-22T07:25:46.324Z,78.10
2019-05-22T07:28:18.087Z,77.00
2019-05-22T07:30:47.991Z,76.60
2019-05-22T07:33:18.049Z,76.90
2019-05-22T07:36:07.740Z,76.40
2019-05-22T07:38:19.375Z,77.00
2019-05-22T07:40:50.330Z,76.50
2019-05-22T07:43:19.046Z,74.60
2019-05-22T07:45:48.475Z,74.90
2019-05-22T07:48:18.696Z,76.00
2019-05-22T07:50:49.425Z,75.40
2019-05-22T07:53:18.346Z,74.50
2019-05-22T07:55:49.038Z,73.10
2019-05-22T07:58:18.497Z,73.40
2019-05-22T08:00:50.718Z,73.30
2019-05-22T08:03:21.530Z,72.70
2019-05-22T08:05:55.366Z,72.50
2019-05-22T08:08:25.932Z,73.80
2019-05-22T08:10:56.375Z,74.10
2019-05-22T08:13:26.637Z,74.50
2019-05-22T08:15:55.692Z,74.40
2019-05-22T08:18:25.972Z,73.30
2019-05-22T08:20:54.591Z,72.90
2019-05-22T08:23:24.504Z,71.50
2019-05-22T08:25:53.475Z,71.50
2019-05-22T08:28:22.317Z,71.40
2019-05-22T08:30:51.913Z,70.30
2019-05-22T08:33:22.421Z,69.60
2019-05-22T08:35:51.228Z,69.50
2019-05-22T08:38:23.759Z,68.90
2019-05-22T08:40:52.887Z,69.20
2019-05-22T08:43:22.398Z,69.10
2019-05-22T08:45:51.648Z,69.10
2019-05-22T08:48:20.805Z,68.50
2019-05-22T08:50:50.311Z,67.60
2019-05-22T08:53:19.710Z,67.10
2019-05-22T08:55:49.190Z,67.70
2019-05-22T08:58:18.873Z,67.50
2019-05-22T09:00:48.207Z,66.50
2019-05-22T09:03:17.498Z,66.30
2019-05-22T09:05:46.642Z,65.40
2019-05-22T09:08:15.479Z,66.10
2019-05-22T09:10:44.060Z,66.40
2019-05-22T09:13:13.113Z,66.90
2019-05-22T09:15:42.494Z,67.60
2019-05-22T09:18:11.944Z,66.50
2019-05-22T09:20:49.270Z,66.50
2019-05-22T09:23:12.001Z,65.00
2019-05-22T09:25:41.084Z,64.70
2019-05-22T09:28:10.255Z,64.30
2019-05-22T09:30:38.992Z,64.10
2019-05-22T09:33:09.033Z,64.90
2019-05-22T09:35:38.248Z,62.90
2019-05-22T09:38:06.987Z,62.00
2019-05-22T09:40:36.021Z,61.90
2019-05-22T09:43:05.259Z,62.20
2019-05-22T09:45:35.778Z,62.40
2019-05-22T09:48:05.781Z,61.90
2019-05-22T09:50:34.959Z,62.50
2019-05-22T09:53:05.107Z,61.70
2019-05-22T09:55:33.824Z,61.30
2019-05-22T09:58:04.548Z,61.80
2019-05-22T10:00:33.414Z,60.40
2019-05-22T10:03:02.300Z,60.90
2019-05-22T10:05:30.940Z,61.40
2019-05-22T10:08:01.872Z,60.90
2019-05-22T10:10:31.727Z,60.50
2019-05-22T10:13:00.378Z,59.60
2019-05-22T10:15:29.744Z,59.80
2019-05-22T10:17:58.863Z,60.40
2019-05-22T10:20:27.512Z,59.50
2019-05-22T10:22:56.413Z,59.40
2019-05-22T10:25:25.228Z,58.80
2019-05-22T10:27:53.815Z,58.40
2019-05-22T10:30:24.663Z,58.40
2019-05-22T10:32:53.507Z,57.70
2019-05-22T10:35:26.664Z,57.20
2019-05-22T10:37:56.107Z,58.70
2019-05-22T10:40:25.222Z,58.90
2019-05-22T10:42:54.430Z,58.00
2019-05-22T10:45:23.233Z,56.90
2019-05-22T10:47:52.527Z,56.60
2019-05-22T10:50:21.443Z,55.80
2019-05-22T10:52:53.930Z,55.60
2019-05-22T10:55:22.707Z,55.60
2019-05-22T10:57:51.497Z,57.10
2019-05-22T11:00:22.032Z,56.30
2019-05-22T11:02:50.723Z,57.00
2019-05-22T11:05:21.795Z,56.30
2019-05-22T11:07:51.660Z,56.10
2019-05-22T11:10:22.921Z,55.40
2019-05-22T11:12:52.269Z,55.20
2019-05-22T11:15:22.822Z,54.20
2019-05-22T11:17:52.977Z,52.90
2019-05-22T11:20:23.008Z,53.50
2019-05-22T11:22:51.693Z,53.10
2019-05-22T11:25:21.707Z,52.10
2019-05-22T11:27:50.390Z,53.50
2019-05-22T11:30:20.230Z,53.10
2019-05-22T11:32:49.220Z,53.80
2019-05-22T11:35:20.412Z,53.40
2019-05-22T11:37:49.419Z,52.50
2019-05-22T11:40:20.411Z,53.40
2019-05-22T11:42:52.221Z,53.30
2019-05-22T11:45:21.640Z,52.90
2019-05-22T11:47:51.112Z,51.80
2019-05-22T11:50:21.303Z,50.80
2019-05-22T11:52:50.170Z,50.80
2019-05-22T11:55:19.378Z,50.70
2019-05-22T11:57:49.161Z,50.80
2019-05-22T12:00:20.130Z,50.30
2019-05-22T12:02:49.671Z,50.50
2019-05-22T12:05:19.968Z,50.90
2019-05-22T12:07:48.919Z,51.20
2019-05-22T12:10:19.887Z,50.40
2019-05-22T12:12:51.632Z,50.50
2019-05-22T12:15:24.022Z,49.00
2019-05-22T12:17:54.329Z,48.30
2019-05-22T12:20:24.898Z,49.40
2019-05-22T12:22:53.788Z,46.00
2019-05-22T12:25:22.873Z,42.40
2019-05-22T12:27:52.121Z,37.90
2019-05-22T12:30:21.667Z,36.40
2019-05-22T12:32:51.773Z,34.50
2019-05-22T12:35:22.135Z,32.90
2019-05-22T12:37:51.224Z,32.20
2019-05-22T12:40:20.924Z,31.20
2019-05-22T12:42:50.201Z,29.20
2019-05-22T12:45:24.967Z,27.50
2019-05-22T12:47:54.973Z,29.40
2019-05-22T12:50:27.305Z,31.80
2019-05-22T12:52:56.486Z,31.40
2019-05-22T12:55:25.574Z,33.10
2019-05-22T12:57:54.472Z,30.70
2019-05-22T13:00:26.012Z,28.70
2019-05-22T13:02:55.837Z,28.70
2019-05-22T13:05:25.025Z,26.20
2019-05-22T13:07:54.010Z,24.40
2019-05-22T13:10:23.556Z,22.80
2019-05-22T13:12:52.815Z,22.10
2019-05-22T13:15:23.437Z,22.10
2019-05-22T13:17:54.252Z,22.00
2019-05-22T13:20:41.335Z,22.60
2019-05-22T13:22:58.029Z,23.90
2019-05-22T13:25:29.658Z,23.30
2019-05-22T13:28:01.149Z,22.40
2019-05-22T13:30:31.387Z,21.10
2019-05-22T13:33:00.410Z,21.00
2019-05-22T13:35:29.241Z,20.00
2019-05-22T13:37:59.701Z,19.00
2019-05-22T13:40:30.037Z,20.00
2019-05-22T13:42:59.204Z,20.30
2019-05-22T13:45:30.191Z,20.30
2019-05-22T13:48:00.029Z,20.60
2019-05-22T13:50:30.006Z,19.70
2019-05-22T13:53:00.714Z,20.40
2019-05-22T13:55:30.322Z,20.60
2019-05-22T13:58:00.756Z,20.10
2019-05-22T14:00:29.937Z,20.20
2019-05-22T14:02:58.737Z,19.90
2019-05-22T14:05:29.302Z,20.50
2019-05-22T14:07:58.537Z,20.80
2019-05-22T14:10:28.823Z,21.00
2019-05-22T14:12:58.123Z,22.10
2019-05-22T14:15:47.360Z,22.00
2019-05-22T14:17:58.182Z,22.40
2019-05-22T14:20:27.317Z,23.20
2019-05-22T14:22:56.097Z,23.60
2019-05-22T14:25:25.918Z,22.80
2019-05-22T14:27:54.731Z,23.40
2019-05-22T14:30:25.156Z,24.50
2019-05-22T14:32:54.722Z,25.60
2019-05-22T14:35:25.617Z,26.50
2019-05-22T14:37:54.713Z,27.30
2019-05-22T14:40:24.053Z,28.30
2019-05-22T14:42:52.980Z,28.70
2019-05-22T14:45:22.899Z,29.10
2019-05-22T14:47:52.388Z,30.00
2019-05-22T14:50:22.234Z,30.00
2019-05-22T14:52:51.732Z,30.30
2019-05-22T14:55:21.831Z,29.90
2019-05-22T14:57:51.210Z,29.00
2019-05-22T15:00:22.291Z,28.70
2019-05-22T15:02:56.784Z,28.30
2019-05-22T15:05:22.418Z,27.70
2019-05-22T15:07:51.520Z,27.20
2019-05-22T15:10:21.711Z,27.90
2019-05-22T15:12:50.853Z,28.40
2019-05-22T15:15:20.205Z,28.70
2019-05-22T15:17:49.537Z,29.40
2019-05-22T15:20:25.483Z,30.30
2019-05-22T15:22:56.210Z,30.30
2019-05-22T15:25:25.306Z,30.30
2019-05-22T15:27:54.251Z,31.00
2019-05-22T15:30:23.041Z,30.50
2019-05-22T15:32:52.839Z,31.90
2019-05-22T15:35:23.025Z,32.40
2019-05-22T15:37:53.837Z,31.20
2019-05-22T15:40:24.409Z,31.20
2019-05-22T15:42:54.091Z,31.30
2019-05-22T15:45:29.225Z,32.70
2019-05-22T15:48:02.330Z,33.60
2019-05-22T15:50:33.947Z,34.30
2019-05-22T15:53:08.822Z,34.10
2019-05-22T15:55:38.119Z,33.60
2019-05-22T15:58:08.846Z,33.60
2019-05-22T16:00:40.425Z,33.30
2019-05-22T16:03:12.549Z,32.20
2019-05-22T16:05:43.554Z,33.00
2019-05-22T16:08:14.841Z,33.20
2019-05-22T16:10:46.802Z,33.50
2019-05-22T16:13:18.642Z,33.60
2019-05-22T16:15:49.910Z,32.60
2019-05-22T16:18:22.159Z,32.70
2019-05-22T16:20:51.817Z,32.30
2019-05-22T16:23:22.146Z,32.00
2019-05-22T16:25:52.795Z,32.30
2019-05-22T16:28:22.765Z,33.20
2019-05-22T16:30:52.278Z,33.00
2019-05-22T16:33:23.951Z,32.80
2019-05-22T16:35:52.923Z,33.10
2019-05-22T16:38:23.424Z,33.50
2019-05-22T16:40:52.713Z,34.10
2019-05-22T16:43:21.625Z,34.00
2019-05-22T16:45:51.463Z,33.60
2019-05-22T16:48:29.193Z,33.80
2019-05-22T16:50:52.703Z,34.50
2019-05-22T16:53:24.788Z,34.50
2019-05-22T16:55:54.190Z,35.00
2019-05-22T16:58:23.760Z,33.90
2019-05-22T17:00:56.427Z,34.00
2019-05-22T17:03:25.091Z,34.80
2019-05-22T17:05:55.273Z,35.10
2019-05-22T17:08:25.805Z,35.40
2019-05-22T17:10:57.449Z,35.40
2019-05-22T17:13:28.655Z,35.90
2019-05-22T17:15:58.332Z,35.00
2019-05-22T17:18:44.271Z,34.70
2019-05-22T17:21:02.420Z,34.40
2019-05-22T17:23:31.514Z,34.50
2019-05-22T17:26:00.408Z,34.30
2019-05-22T17:28:29.772Z,34.50
2019-05-22T17:30:58.876Z,34.70
2019-05-22T17:33:27.995Z,34.50
2019-05-22T17:35:57.012Z,34.10
2019-05-22T17:38:27.285Z,34.50
2019-05-22T17:40:56.367Z,35.00
2019-05-22T17:43:26.557Z,35.40
2019-05-22T17:45:56.324Z,35.80
2019-05-22T17:48:25.403Z,35.60
2019-05-22T17:50:54.910Z,36.00
2019-05-22T17:53:24.097Z,36.10
2019-05-22T17:55:52.908Z,36.50
2019-05-22T17:58:25.752Z,37.20
2019-05-22T18:00:53.481Z,37.50
2019-05-22T18:03:23.277Z,37.90
2019-05-22T18:05:52.528Z,38.20
2019-05-22T18:08:23.288Z,38.40
2019-05-22T18:10:52.234Z,38.50
2019-05-22T18:13:22.250Z,38.80
2019-05-22T18:15:51.404Z,38.90
2019-05-22T18:18:20.596Z,38.80
2019-05-22T18:20:49.913Z,39.00
2019-05-22T18:23:18.745Z,39.60
2019-05-22T18:25:48.614Z,39.70
2019-05-22T18:28:17.885Z,40.20
2019-05-22T18:30:47.200Z,40.80
2019-05-22T18:33:15.899Z,41.30
2019-05-22T18:35:45.124Z,41.70
2019-05-22T18:38:13.843Z,42.10
2019-05-22T18:40:42.428Z,42.60
2019-05-22T18:43:11.262Z,42.90
2019-05-22T18:45:40.547Z,43.20
2019-05-22T18:48:10.022Z,43.30
2019-05-22T18:50:39.519Z,43.60
2019-05-22T18:53:08.817Z,44.20
2019-05-22T18:55:37.514Z,44.80
2019-05-22T18:58:06.453Z,45.10
2019-05-22T19:00:35.628Z,45.40
2019-05-22T19:03:05.055Z,45.70
2019-05-22T19:05:34.871Z,46.30
2019-05-22T19:08:03.791Z,46.70
2019-05-22T19:10:32.810Z,47.10
2019-05-22T19:13:02.056Z,47.60
2019-05-22T19:15:31.518Z,48.00
2019-05-22T19:18:00.908Z,48.20
2019-05-22T19:20:29.604Z,48.60
2019-05-22T19:23:00.837Z,49.10
2019-05-22T19:25:28.641Z,49.80
2019-05-22T19:27:57.351Z,50.40
2019-05-22T19:30:26.706Z,50.70
2019-05-22T19:32:55.487Z,51.20
2019-05-22T19:35:24.234Z,51.50
2019-05-22T19:37:53.779Z,51.90
2019-05-22T19:40:23.096Z,52.40
2019-05-22T19:42:52.274Z,52.90
2019-05-22T19:45:22.196Z,53.50
2019-05-22T19:47:53.113Z,54.00
2019-05-22T19:50:23.886Z,54.40
2019-05-22T19:52:53.613Z,55.00
2019-05-22T19:55:24.139Z,55.40
2019-05-22T19:57:53.130Z,55.80
2019-05-22T20:00:22.960Z,56.30
2019-05-22T20:02:51.666Z,56.60
2019-05-22T20:05:22.783Z,56.70
2019-05-22T20:07:51.979Z,57.00
2019-05-22T20:10:21.794Z,57.50
2019-05-22T20:12:50.774Z,58.00
2019-05-22T20:15:20.407Z,58.30
2019-05-22T20:17:49.113Z,58.20
2019-05-22T20:20:19.995Z,58.10
2019-05-22T20:22:49.708Z,58.60
2019-05-22T20:25:19.336Z,58.60
2019-05-22T20:27:48.193Z,58.50
2019-05-22T20:30:20.247Z,58.40
2019-05-22T20:32:48.985Z,58.10
2019-05-22T20:35:18.287Z,57.60
2019-05-22T20:37:48.424Z,57.50
2019-05-22T20:40:20.290Z,57.50
2019-05-22T20:42:49.455Z,57.70
2019-05-22T20:45:21.217Z,57.90
2019-05-22T20:47:54.449Z,58.00
2019-05-22T20:50:25.413Z,58.10
2019-05-22T20:52:55.111Z,58.20
2019-05-22T20:55:24.281Z,58.50
2019-05-22T20:57:53.300Z,59.00
2019-05-22T21:00:23.272Z,59.30
2019-05-22T21:02:54.956Z,59.50
2019-05-22T21:05:23.885Z,59.70
2019-05-22T21:07:55.656Z,59.90
2019-05-22T21:10:24.496Z,60.10
2019-05-22T21:12:55.161Z,60.10
2019-05-22T21:15:24.794Z,60.70
2019-05-22T21:17:53.875Z,60.90
2019-05-22T21:20:24.245Z,61.20
2019-05-22T21:22:53.566Z,61.60
2019-05-22T21:25:23.465Z,61.70
2019-05-22T21:27:52.157Z,62.10
2019-05-22T21:30:22.276Z,62.30
2019-05-22T21:32:51.158Z,62.50
2019-05-22T21:35:22.415Z,62.50
2019-05-22T21:37:51.101Z,62.40
2019-05-22T21:40:22.697Z,62.80
2019-05-22T21:42:53.683Z,63.00
2019-05-22T21:45:24.179Z,63.10
2019-05-22T21:47:53.319Z,63.50
2019-05-22T21:50:22.704Z,64.00
2019-05-22T21:52:52.058Z,64.10
2019-05-22T21:55:21.940Z,64.10
2019-05-22T21:57:50.972Z,64.70
2019-05-22T22:00:42.753Z,64.60
2019-05-22T22:03:13.686Z,64.70
2019-05-22T22:05:42.899Z,64.70
2019-05-22T22:08:12.700Z,65.20
2019-05-22T22:10:42.092Z,65.40
2019-05-22T22:13:12.736Z,65.80
2019-05-22T22:15:46.209Z,66.00
2019-05-22T22:18:15.968Z,66.20
2019-05-22T22:20:45.357Z,67.00
2019-05-22T22:23:15.925Z,66.40
2019-05-22T22:25:45.694Z,66.70
2019-05-22T22:28:16.815Z,66.90
2019-05-22T22:30:50.402Z,67.10
2019-05-22T22:33:22.752Z,67.50
2019-05-22T22:35:52.959Z,67.70
2019-05-22T22:38:24.982Z,67.70
2019-05-22T22:40:56.136Z,67.80
2019-05-22T22:43:28.103Z,68.10
2019-05-22T22:46:01.172Z,68.00
2019-05-22T22:48:33.272Z,68.10
2019-05-22T22:51:06.113Z,68.20
2019-05-22T22:53:35.027Z,68.50
2019-05-22T22:56:04.712Z,68.90
2019-05-22T22:58:34.182Z,69.00
2019-05-22T23:01:07.927Z,69.10
2019-05-22T23:03:38.328Z,69.10
2019-05-22T23:06:10.583Z,69.10
2019-05-22T23:08:40.769Z,69.40
2019-05-22T23:11:10.588Z,69.50
2019-05-22T23:13:40.875Z,69.60
2019-05-22T23:16:10.022Z,69.90
2019-05-22T23:18:42.956Z,70.10
2019-05-22T23:21:12.114Z,70.00
2019-05-22T23:23:40.813Z,69.90
2019-05-22T23:26:11.300Z,69.80
2019-05-22T23:28:41.899Z,69.40
2019-05-22T23:31:12.083Z,69.80
2019-05-22T23:33:41.111Z,69.70
2019-05-22T23:36:12.003Z,69.70
2019-05-22T23:38:41.456Z,69.70
2019-05-22T23:41:11.332Z,69.50
2019-05-22T23:43:40.523Z,69.40
2019-05-22T23:46:11.580Z,69.60
2019-05-22T23:48:41.188Z,69.50
2019-05-22T23:51:10.364Z,69.30
2019-05-22T23:53:40.443Z,69.40
2019-05-22T23:56:10.812Z,69.70
2019-05-22T23:58:52.082Z,69.70
